sensor_id;sensor_type;location;lat;lon;timestamp;P1;durP1;ratioP1;P2;durP2;ratioP2
26106;SDS011;13866;50.748;12.630;2023-07-20T00:00:05;5.77;;;5.47;;
26106;SDS011;13866;50.748;12.630;2023-07-20T00:02:31;5.93;;;5.57;;
26106;SDS011;13866;50.748;12.630;2023-07-20T00:04:56;5.43;;;5.17;;
26106;SDS011;13866;50.748;12.630;2023-07-20T00:07:22;6.60;;;6.10;;
26106;SDS011;13866;50.748;12.630;2023-07-20T00:09:47;6.53;;;6.13;;
26106;SDS011;13866;50.748;12.630;2023-07-20T00:12:13;6.33;;;5.70;;
26106;SDS011;13866;50.748;12.630;2023-07-20T00:14:39;6.60;;;6.00;;
26106;SDS011;13866;50.748;12.630;2023-07-20T00:17:04;9.20;;;6.50;;
26106;SDS011;13866;50.748;12.630;2023-07-20T00:19:30;7.17;;;6.10;;
26106;SDS011;13866;50.748;12.630;2023-07-20T00:21:57;5.97;;;5.60;;
26106;SDS011;13866;50.748;12.630;2023-07-20T00:24:22;6.33;;;5.83;;
26106;SDS011;13866;50.748;12.630;2023-07-20T00:26:48;6.27;;;5.27;;
26106;SDS011;13866;50.748;12.630;2023-07-20T00:29:14;6.87;;;5.33;;
26106;SDS011;13866;50.748;12.630;2023-07-20T00:31:39;6.30;;;5.90;;
26106;SDS011;13866;50.748;12.630;2023-07-20T00:34:05;4.83;;;4.67;;
26106;SDS011;13866;50.748;12.630;2023-07-20T00:36:31;6.03;;;5.63;;
26106;SDS011;13866;50.748;12.630;2023-07-20T00:38:57;7.23;;;6.00;;
26106;SDS011;13866;50.748;12.630;2023-07-20T00:41:23;6.87;;;6.20;;
26106;SDS011;13866;50.748;12.630;2023-07-20T00:43:48;11.53;;;6.87;;
26106;SDS011;13866;50.748;12.630;2023-07-20T00:46:14;6.97;;;5.80;;
26106;SDS011;13866;50.748;12.630;2023-07-20T00:48:40;14.20;;;6.30;;
26106;SDS011;13866;50.748;12.630;2023-07-20T00:51:06;6.77;;;5.57;;
26106;SDS011;13866;50.748;12.630;2023-07-20T00:53:32;7.33;;;5.50;;
26106;SDS011;13866;50.748;12.630;2023-07-20T00:55:57;6.17;;;5.77;;
26106;SDS011;13866;50.748;12.630;2023-07-20T00:58:23;5.97;;;5.40;;
26106;SDS011;13866;50.748;12.630;2023-07-20T01:00:49;7.67;;;6.37;;
26106;SDS011;13866;50.748;12.630;2023-07-20T01:03:14;4.93;;;4.60;;
26106;SDS011;13866;50.748;12.630;2023-07-20T01:05:41;7.53;;;5.20;;
26106;SDS011;13866;50.748;12.630;2023-07-20T01:08:15;8.53;;;5.27;;
26106;SDS011;13866;50.748;12.630;2023-07-20T01:10:57;4.10;;;4.00;;
26106;SDS011;13866;50.748;12.630;2023-07-20T01:13:29;5.83;;;5.43;;
26106;SDS011;13866;50.748;12.630;2023-07-20T01:16:00;8.13;;;5.30;;
26106;SDS011;13866;50.748;12.630;2023-07-20T01:18:26;5.63;;;5.23;;
26106;SDS011;13866;50.748;12.630;2023-07-20T01:20:52;10.07;;;5.00;;
26106;SDS011;13866;50.748;12.630;2023-07-20T01:23:29;4.70;;;4.50;;
26106;SDS011;13866;50.748;12.630;2023-07-20T01:26:18;4.90;;;4.70;;
26106;SDS011;13866;50.748;12.630;2023-07-20T01:31:46;7.37;;;5.50;;
26106;SDS011;13866;50.748;12.630;2023-07-20T01:34:17;5.10;;;4.70;;
26106;SDS011;13866;50.748;12.630;2023-07-20T01:36:44;10.63;;;4.50;;
26106;SDS011;13866;50.748;12.630;2023-07-20T01:39:13;12.33;;;4.40;;
26106;SDS011;13866;50.748;12.630;2023-07-20T01:41:38;5.70;;;4.70;;
26106;SDS011;13866;50.748;12.630;2023-07-20T01:44:04;5.40;;;5.10;;
26106;SDS011;13866;50.748;12.630;2023-07-20T01:46:30;10.40;;;4.77;;
26106;SDS011;13866;50.748;12.630;2023-07-20T01:48:55;9.70;;;4.30;;
26106;SDS011;13866;50.748;12.630;2023-07-20T01:51:22;5.20;;;4.90;;
26106;SDS011;13866;50.748;12.630;2023-07-20T01:53:47;4.40;;;4.20;;
26106;SDS011;13866;50.748;12.630;2023-07-20T01:56:13;7.93;;;5.00;;
26106;SDS011;13866;50.748;12.630;2023-07-20T01:58:38;7.83;;;4.83;;
26106;SDS011;13866;50.748;12.630;2023-07-20T02:01:04;5.37;;;5.00;;
26106;SDS011;13866;50.748;12.630;2023-07-20T02:03:30;6.00;;;5.37;;
26106;SDS011;13866;50.748;12.630;2023-07-20T02:05:55;6.20;;;5.70;;
26106;SDS011;13866;50.748;12.630;2023-07-20T02:08:22;8.83;;;5.77;;
26106;SDS011;13866;50.748;12.630;2023-07-20T02:10:48;5.90;;;5.60;;
26106;SDS011;13866;50.748;12.630;2023-07-20T02:13:13;6.70;;;6.10;;
26106;SDS011;13866;50.748;12.630;2023-07-20T02:15:39;5.57;;;5.40;;
26106;SDS011;13866;50.748;12.630;2023-07-20T02:18:06;5.43;;;4.90;;
26106;SDS011;13866;50.748;12.630;2023-07-20T02:20:31;8.47;;;6.20;;
26106;SDS011;13866;50.748;12.630;2023-07-20T02:22:57;5.60;;;5.30;;
26106;SDS011;13866;50.748;12.630;2023-07-20T02:25:22;9.67;;;5.23;;
26106;SDS011;13866;50.748;12.630;2023-07-20T02:27:48;5.27;;;4.80;;
26106;SDS011;13866;50.748;12.630;2023-07-20T02:30:13;9.00;;;4.90;;
26106;SDS011;13866;50.748;12.630;2023-07-20T02:32:41;6.17;;;5.80;;
26106;SDS011;13866;50.748;12.630;2023-07-20T02:35:10;4.30;;;4.30;;
26106;SDS011;13866;50.748;12.630;2023-07-20T02:37:36;6.00;;;5.70;;
26106;SDS011;13866;50.748;12.630;2023-07-20T02:40:02;4.67;;;4.20;;
26106;SDS011;13866;50.748;12.630;2023-07-20T02:42:29;5.83;;;5.50;;
26106;SDS011;13866;50.748;12.630;2023-07-20T02:44:55;5.67;;;5.47;;
26106;SDS011;13866;50.748;12.630;2023-07-20T02:47:20;5.53;;;5.13;;
26106;SDS011;13866;50.748;12.630;2023-07-20T02:49:46;8.50;;;4.10;;
26106;SDS011;13866;50.748;12.630;2023-07-20T02:52:11;5.33;;;4.83;;
26106;SDS011;13866;50.748;12.630;2023-07-20T02:54:37;4.83;;;4.63;;
26106;SDS011;13866;50.748;12.630;2023-07-20T02:57:02;6.43;;;4.60;;
26106;SDS011;13866;50.748;12.630;2023-07-20T02:59:28;11.63;;;4.30;;
26106;SDS011;13866;50.748;12.630;2023-07-20T03:01:54;6.17;;;5.70;;
26106;SDS011;13866;50.748;12.630;2023-07-20T03:04:20;6.50;;;5.93;;
26106;SDS011;13866;50.748;12.630;2023-07-20T03:06:46;4.67;;;4.57;;
26106;SDS011;13866;50.748;12.630;2023-07-20T03:09:12;5.07;;;4.90;;
26106;SDS011;13866;50.748;12.630;2023-07-20T03:11:37;5.77;;;5.17;;
26106;SDS011;13866;50.748;12.630;2023-07-20T03:14:03;6.50;;;6.00;;
26106;SDS011;13866;50.748;12.630;2023-07-20T03:16:28;9.83;;;6.27;;
26106;SDS011;13866;50.748;12.630;2023-07-20T03:18:57;6.20;;;5.80;;
26106;SDS011;13866;50.748;12.630;2023-07-20T03:21:23;10.27;;;5.77;;
26106;SDS011;13866;50.748;12.630;2023-07-20T03:23:49;5.27;;;5.00;;
26106;SDS011;13866;50.748;12.630;2023-07-20T03:26:14;6.73;;;6.23;;
26106;SDS011;13866;50.748;12.630;2023-07-20T03:28:40;6.03;;;5.73;;
26106;SDS011;13866;50.748;12.630;2023-07-20T03:31:05;6.97;;;5.90;;
26106;SDS011;13866;50.748;12.630;2023-07-20T03:33:31;7.10;;;6.70;;
26106;SDS011;13866;50.748;12.630;2023-07-20T03:35:57;7.00;;;6.70;;
26106;SDS011;13866;50.748;12.630;2023-07-20T03:38:23;6.80;;;6.20;;
26106;SDS011;13866;50.748;12.630;2023-07-20T03:43:19;8.27;;;7.47;;
26106;SDS011;13866;50.748;12.630;2023-07-20T03:45:44;6.73;;;6.23;;
26106;SDS011;13866;50.748;12.630;2023-07-20T03:48:10;7.27;;;6.67;;
26106;SDS011;13866;50.748;12.630;2023-07-20T03:50:36;8.07;;;7.37;;
26106;SDS011;13866;50.748;12.630;2023-07-20T03:53:02;7.10;;;6.60;;
26106;SDS011;13866;50.748;12.630;2023-07-20T03:55:28;8.03;;;6.30;;
26106;SDS011;13866;50.748;12.630;2023-07-20T03:57:53;10.20;;;6.77;;
26106;SDS011;13866;50.748;12.630;2023-07-20T04:00:19;6.63;;;5.93;;
26106;SDS011;13866;50.748;12.630;2023-07-20T04:02:44;7.10;;;6.70;;
26106;SDS011;13866;50.748;12.630;2023-07-20T04:05:10;6.07;;;5.77;;
26106;SDS011;13866;50.748;12.630;2023-07-20T04:07:35;6.73;;;6.33;;
26106;SDS011;13866;50.748;12.630;2023-07-20T04:10:01;7.43;;;6.83;;
26106;SDS011;13866;50.748;12.630;2023-07-20T04:12:26;7.13;;;6.63;;
26106;SDS011;13866;50.748;12.630;2023-07-20T04:14:52;7.60;;;6.43;;
26106;SDS011;13866;50.748;12.630;2023-07-20T04:17:17;8.40;;;5.67;;
26106;SDS011;13866;50.748;12.630;2023-07-20T04:19:43;7.07;;;6.53;;
26106;SDS011;13866;50.748;12.630;2023-07-20T04:22:09;4.90;;;4.70;;
26106;SDS011;13866;50.748;12.630;2023-07-20T04:24:34;5.47;;;5.07;;
26106;SDS011;13866;50.748;12.630;2023-07-20T04:27:00;7.90;;;6.53;;
26106;SDS011;13866;50.748;12.630;2023-07-20T04:29:25;6.73;;;6.40;;
26106;SDS011;13866;50.748;12.630;2023-07-20T04:31:51;6.20;;;5.77;;
26106;SDS011;13866;50.748;12.630;2023-07-20T04:34:16;8.53;;;6.20;;
26106;SDS011;13866;50.748;12.630;2023-07-20T04:36:42;6.17;;;5.87;;
26106;SDS011;13866;50.748;12.630;2023-07-20T04:39:07;6.83;;;5.70;;
26106;SDS011;13866;50.748;12.630;2023-07-20T04:41:34;6.50;;;6.00;;
26106;SDS011;13866;50.748;12.630;2023-07-20T04:44:00;10.53;;;6.20;;
26106;SDS011;13866;50.748;12.630;2023-07-20T04:46:25;6.20;;;5.83;;
26106;SDS011;13866;50.748;12.630;2023-07-20T04:48:51;7.47;;;6.27;;
26106;SDS011;13866;50.748;12.630;2023-07-20T04:51:16;7.17;;;6.70;;
26106;SDS011;13866;50.748;12.630;2023-07-20T04:53:45;6.97;;;6.57;;
26106;SDS011;13866;50.748;12.630;2023-07-20T04:56:11;6.17;;;5.40;;
26106;SDS011;13866;50.748;12.630;2023-07-20T04:58:37;6.73;;;6.10;;
26106;SDS011;13866;50.748;12.630;2023-07-20T05:01:02;6.30;;;6.13;;
26106;SDS011;13866;50.748;12.630;2023-07-20T05:03:28;7.10;;;6.60;;
26106;SDS011;13866;50.748;12.630;2023-07-20T05:05:54;10.40;;;6.60;;
26106;SDS011;13866;50.748;12.630;2023-07-20T05:08:20;6.87;;;5.70;;
26106;SDS011;13866;50.748;12.630;2023-07-20T05:10:47;6.77;;;6.20;;
26106;SDS011;13866;50.748;12.630;2023-07-20T05:13:12;5.73;;;5.20;;
26106;SDS011;13866;50.748;12.630;2023-07-20T05:15:38;6.03;;;5.77;;
26106;SDS011;13866;50.748;12.630;2023-07-20T05:18:04;12.77;;;5.90;;
26106;SDS011;13866;50.748;12.630;2023-07-20T05:20:30;6.90;;;6.20;;
26106;SDS011;13866;50.748;12.630;2023-07-20T05:22:56;7.43;;;6.70;;
26106;SDS011;13866;50.748;12.630;2023-07-20T05:25:22;6.83;;;6.10;;
26106;SDS011;13866;50.748;12.630;2023-07-20T05:27:48;7.10;;;6.50;;
26106;SDS011;13866;50.748;12.630;2023-07-20T05:30:13;7.53;;;6.90;;
26106;SDS011;13866;50.748;12.630;2023-07-20T05:32:39;7.90;;;7.30;;
26106;SDS011;13866;50.748;12.630;2023-07-20T05:35:04;13.03;;;6.97;;
26106;SDS011;13866;50.748;12.630;2023-07-20T05:37:30;13.10;;;7.50;;
26106;SDS011;13866;50.748;12.630;2023-07-20T05:39:56;7.43;;;6.73;;
26106;SDS011;13866;50.748;12.630;2023-07-20T05:42:22;7.10;;;6.80;;
26106;SDS011;13866;50.748;12.630;2023-07-20T05:44:48;7.30;;;6.70;;
26106;SDS011;13866;50.748;12.630;2023-07-20T05:47:14;6.80;;;6.40;;
26106;SDS011;13866;50.748;12.630;2023-07-20T05:49:40;6.03;;;5.83;;
26106;SDS011;13866;50.748;12.630;2023-07-20T05:52:06;12.63;;;6.60;;
26106;SDS011;13866;50.748;12.630;2023-07-20T05:54:31;7.20;;;6.53;;
26106;SDS011;13866;50.748;12.630;2023-07-20T05:56:57;9.93;;;6.67;;
26106;SDS011;13866;50.748;12.630;2023-07-20T05:59:22;10.03;;;7.10;;
26106;SDS011;13866;50.748;12.630;2023-07-20T06:01:49;5.90;;;5.70;;
26106;SDS011;13866;50.748;12.630;2023-07-20T06:04:14;6.00;;;5.40;;
26106;SDS011;13866;50.748;12.630;2023-07-20T06:06:40;8.30;;;7.10;;
26106;SDS011;13866;50.748;12.630;2023-07-20T06:09:05;7.00;;;6.60;;
26106;SDS011;13866;50.748;12.630;2023-07-20T06:11:34;18.87;;;7.23;;
26106;SDS011;13866;50.748;12.630;2023-07-20T06:14:01;7.63;;;6.00;;
26106;SDS011;13866;50.748;12.630;2023-07-20T06:16:26;9.77;;;6.97;;
26106;SDS011;13866;50.748;12.630;2023-07-20T06:18:52;7.23;;;6.67;;
26106;SDS011;13866;50.748;12.630;2023-07-20T06:21:17;7.20;;;6.70;;
26106;SDS011;13866;50.748;12.630;2023-07-20T06:23:43;6.93;;;6.63;;
26106;SDS011;13866;50.748;12.630;2023-07-20T06:26:08;7.93;;;7.60;;
26106;SDS011;13866;50.748;12.630;2023-07-20T06:28:34;7.60;;;7.10;;
26106;SDS011;13866;50.748;12.630;2023-07-20T06:31:00;9.63;;;7.63;;
26106;SDS011;13866;50.748;12.630;2023-07-20T06:33:26;7.27;;;6.70;;
26106;SDS011;13866;50.748;12.630;2023-07-20T06:35:52;7.13;;;5.57;;
26106;SDS011;13866;50.748;12.630;2023-07-20T06:38:18;11.93;;;6.20;;
26106;SDS011;13866;50.748;12.630;2023-07-20T06:40:45;8.13;;;7.10;;
26106;SDS011;13866;50.748;12.630;2023-07-20T06:43:11;6.70;;;6.40;;
26106;SDS011;13866;50.748;12.630;2023-07-20T06:45:37;6.47;;;6.00;;
26106;SDS011;13866;50.748;12.630;2023-07-20T06:48:02;8.70;;;7.87;;
26106;SDS011;13866;50.748;12.630;2023-07-20T06:50:28;7.20;;;6.67;;
26106;SDS011;13866;50.748;12.630;2023-07-20T06:52:54;15.77;;;7.20;;
26106;SDS011;13866;50.748;12.630;2023-07-20T06:55:19;10.80;;;6.60;;
26106;SDS011;13866;50.748;12.630;2023-07-20T06:57:45;7.97;;;7.27;;
26106;SDS011;13866;50.748;12.630;2023-07-20T07:00:11;7.80;;;7.17;;
26106;SDS011;13866;50.748;12.630;2023-07-20T07:02:37;8.73;;;7.57;;
26106;SDS011;13866;50.748;12.630;2023-07-20T07:05:03;14.20;;;8.27;;
26106;SDS011;13866;50.748;12.630;2023-07-20T07:07:28;8.47;;;7.90;;
26106;SDS011;13866;50.748;12.630;2023-07-20T07:09:54;10.33;;;8.40;;
26106;SDS011;13866;50.748;12.630;2023-07-20T07:12:19;10.57;;;9.30;;
26106;SDS011;13866;50.748;12.630;2023-07-20T07:14:45;8.77;;;8.20;;
26106;SDS011;13866;50.748;12.630;2023-07-20T07:17:10;9.93;;;8.90;;
26106;SDS011;13866;50.748;12.630;2023-07-20T07:19:36;12.23;;;8.30;;
26106;SDS011;13866;50.748;12.630;2023-07-20T07:22:02;6.63;;;6.23;;
26106;SDS011;13866;50.748;12.630;2023-07-20T07:24:28;8.13;;;7.03;;
26106;SDS011;13866;50.748;12.630;2023-07-20T07:26:58;7.23;;;6.60;;
26106;SDS011;13866;50.748;12.630;2023-07-20T07:29:24;5.93;;;5.63;;
26106;SDS011;13866;50.748;12.630;2023-07-20T07:31:50;5.73;;;5.53;;
26106;SDS011;13866;50.748;12.630;2023-07-20T07:34:16;10.20;;;6.60;;
26106;SDS011;13866;50.748;12.630;2023-07-20T07:36:41;8.40;;;6.40;;
26106;SDS011;13866;50.748;12.630;2023-07-20T07:39:07;5.80;;;5.50;;
26106;SDS011;13866;50.748;12.630;2023-07-20T07:41:34;6.47;;;6.03;;
26106;SDS011;13866;50.748;12.630;2023-07-20T07:44:00;5.87;;;4.90;;
26106;SDS011;13866;50.748;12.630;2023-07-20T07:46:25;4.83;;;4.53;;
26106;SDS011;13866;50.748;12.630;2023-07-20T07:48:51;5.07;;;4.87;;
26106;SDS011;13866;50.748;12.630;2023-07-20T07:51:16;5.30;;;5.20;;
26106;SDS011;13866;50.748;12.630;2023-07-20T07:53:42;13.33;;;6.30;;
26106;SDS011;13866;50.748;12.630;2023-07-20T07:56:08;5.50;;;5.10;;
26106;SDS011;13866;50.748;12.630;2023-07-20T07:58:34;14.77;;;4.57;;
26106;SDS011;13866;50.748;12.630;2023-07-20T08:00:59;9.47;;;4.87;;
26106;SDS011;13866;50.748;12.630;2023-07-20T08:03:25;7.27;;;5.33;;
26106;SDS011;13866;50.748;12.630;2023-07-20T08:05:51;4.10;;;4.00;;
26106;SDS011;13866;50.748;12.630;2023-07-20T08:08:20;6.73;;;4.13;;
26106;SDS011;13866;50.748;12.630;2023-07-20T08:10:46;4.40;;;3.40;;
26106;SDS011;13866;50.748;12.630;2023-07-20T08:13:12;4.00;;;3.80;;
26106;SDS011;13866;50.748;12.630;2023-07-20T08:15:37;4.10;;;3.80;;
26106;SDS011;13866;50.748;12.630;2023-07-20T08:18:03;4.10;;;3.90;;
26106;SDS011;13866;50.748;12.630;2023-07-20T08:20:29;4.40;;;4.30;;
26106;SDS011;13866;50.748;12.630;2023-07-20T08:22:55;4.80;;;4.13;;
26106;SDS011;13866;50.748;12.630;2023-07-20T08:25:21;4.23;;;3.87;;
26106;SDS011;13866;50.748;12.630;2023-07-20T08:27:46;3.80;;;3.50;;
26106;SDS011;13866;50.748;12.630;2023-07-20T08:30:12;4.27;;;3.97;;
26106;SDS011;13866;50.748;12.630;2023-07-20T08:32:38;5.50;;;4.40;;
26106;SDS011;13866;50.748;12.630;2023-07-20T08:35:04;4.37;;;4.27;;
26106;SDS011;13866;50.748;12.630;2023-07-20T08:37:30;3.80;;;3.60;;
26106;SDS011;13866;50.748;12.630;2023-07-20T08:39:56;3.63;;;3.53;;
26106;SDS011;13866;50.748;12.630;2023-07-20T08:42:22;3.20;;;3.20;;
26106;SDS011;13866;50.748;12.630;2023-07-20T08:44:48;3.83;;;3.67;;
26106;SDS011;13866;50.748;12.630;2023-07-20T08:47:17;4.63;;;3.67;;
26106;SDS011;13866;50.748;12.630;2023-07-20T08:49:44;3.87;;;3.70;;
26106;SDS011;13866;50.748;12.630;2023-07-20T08:52:13;13.10;;;3.83;;
26106;SDS011;13866;50.748;12.630;2023-07-20T08:54:38;3.97;;;3.70;;
26106;SDS011;13866;50.748;12.630;2023-07-20T08:57:05;3.53;;;3.00;;
26106;SDS011;13866;50.748;12.630;2023-07-20T08:59:31;4.20;;;4.00;;
26106;SDS011;13866;50.748;12.630;2023-07-20T09:01:59;3.90;;;3.60;;
26106;SDS011;13866;50.748;12.630;2023-07-20T09:04:25;5.40;;;2.90;;
26106;SDS011;13866;50.748;12.630;2023-07-20T09:06:51;2.97;;;2.87;;
26106;SDS011;13866;50.748;12.630;2023-07-20T09:09:17;3.70;;;3.40;;
26106;SDS011;13866;50.748;12.630;2023-07-20T09:11:42;3.30;;;3.10;;
26106;SDS011;13866;50.748;12.630;2023-07-20T09:14:11;4.10;;;2.47;;
26106;SDS011;13866;50.748;12.630;2023-07-20T09:19:15;6.40;;;3.10;;
26106;SDS011;13866;50.748;12.630;2023-07-20T09:21:44;5.83;;;3.10;;
26106;SDS011;13866;50.748;12.630;2023-07-20T09:24:11;4.43;;;2.80;;
26106;SDS011;13866;50.748;12.630;2023-07-20T09:26:40;2.90;;;2.67;;
26106;SDS011;13866;50.748;12.630;2023-07-20T09:29:08;2.03;;;1.93;;
26106;SDS011;13866;50.748;12.630;2023-07-20T09:31:36;2.47;;;2.27;;
26106;SDS011;13866;50.748;12.630;2023-07-20T09:34:04;2.67;;;2.57;;
26106;SDS011;13866;50.748;12.630;2023-07-20T09:36:31;3.07;;;2.53;;
26106;SDS011;13866;50.748;12.630;2023-07-20T09:38:59;1.60;;;1.50;;
26106;SDS011;13866;50.748;12.630;2023-07-20T09:41:25;2.00;;;1.70;;
26106;SDS011;13866;50.748;12.630;2023-07-20T09:43:51;2.00;;;1.90;;
26106;SDS011;13866;50.748;12.630;2023-07-20T09:46:18;2.20;;;2.10;;
26106;SDS011;13866;50.748;12.630;2023-07-20T09:48:54;1.63;;;1.63;;
26106;SDS011;13866;50.748;12.630;2023-07-20T09:51:23;2.30;;;2.07;;
26106;SDS011;13866;50.748;12.630;2023-07-20T09:53:49;1.77;;;1.67;;
26106;SDS011;13866;50.748;12.630;2023-07-20T09:56:18;4.80;;;2.40;;
26106;SDS011;13866;50.748;12.630;2023-07-20T09:58:46;1.73;;;1.70;;
26106;SDS011;13866;50.748;12.630;2023-07-20T10:01:13;3.33;;;1.80;;
26106;SDS011;13866;50.748;12.630;2023-07-20T10:03:45;1.73;;;1.63;;
26106;SDS011;13866;50.748;12.630;2023-07-20T10:06:13;2.40;;;2.10;;
26106;SDS011;13866;50.748;12.630;2023-07-20T10:08:44;2.17;;;2.13;;
26106;SDS011;13866;50.748;12.630;2023-07-20T10:11:12;3.43;;;1.83;;
26106;SDS011;13866;50.748;12.630;2023-07-20T10:13:42;1.93;;;1.83;;
26106;SDS011;13866;50.748;12.630;2023-07-20T10:16:10;3.60;;;1.87;;
26106;SDS011;13866;50.748;12.630;2023-07-20T10:18:47;1.83;;;1.73;;
26106;SDS011;13866;50.748;12.630;2023-07-20T10:21:26;3.43;;;1.83;;
26106;SDS011;13866;50.748;12.630;2023-07-20T10:23:52;1.67;;;1.57;;
26106;SDS011;13866;50.748;12.630;2023-07-20T10:26:19;1.50;;;1.50;;
26106;SDS011;13866;50.748;12.630;2023-07-20T10:28:44;1.97;;;1.50;;
26106;SDS011;13866;50.748;12.630;2023-07-20T10:31:14;1.90;;;1.90;;
26106;SDS011;13866;50.748;12.630;2023-07-20T10:33:43;2.60;;;1.60;;
26106;SDS011;13866;50.748;12.630;2023-07-20T10:36:15;2.23;;;1.70;;
26106;SDS011;13866;50.748;12.630;2023-07-20T10:38:55;2.00;;;2.00;;
26106;SDS011;13866;50.748;12.630;2023-07-20T10:41:46;1.63;;;1.53;;
26106;SDS011;13866;50.748;12.630;2023-07-20T10:44:25;2.20;;;1.83;;
26106;SDS011;13866;50.748;12.630;2023-07-20T10:46:50;2.70;;;2.60;;
26106;SDS011;13866;50.748;12.630;2023-07-20T10:49:26;1.53;;;1.53;;
26106;SDS011;13866;50.748;12.630;2023-07-20T10:51:56;1.67;;;1.53;;
26106;SDS011;13866;50.748;12.630;2023-07-20T10:56:49;1.63;;;1.63;;
26106;SDS011;13866;50.748;12.630;2023-07-20T10:59:19;1.50;;;1.50;;
26106;SDS011;13866;50.748;12.630;2023-07-20T11:01:56;2.17;;;1.97;;
26106;SDS011;13866;50.748;12.630;2023-07-20T11:04:40;6.00;;;1.60;;
26106;SDS011;13866;50.748;12.630;2023-07-20T11:07:07;3.20;;;1.73;;
26106;SDS011;13866;50.748;12.630;2023-07-20T11:09:34;1.63;;;1.63;;
26106;SDS011;13866;50.748;12.630;2023-07-20T11:12:10;1.93;;;1.83;;
26106;SDS011;13866;50.748;12.630;2023-07-20T11:14:40;8.63;;;1.40;;
26106;SDS011;13866;50.748;12.630;2023-07-20T11:17:13;1.40;;;1.40;;
26106;SDS011;13866;50.748;12.630;2023-07-20T11:19:39;1.73;;;1.63;;
26106;SDS011;13866;50.748;12.630;2023-07-20T11:22:08;1.80;;;1.70;;
26106;SDS011;13866;50.748;12.630;2023-07-20T11:24:34;1.50;;;1.40;;
26106;SDS011;13866;50.748;12.630;2023-07-20T11:27:00;3.20;;;1.30;;
26106;SDS011;13866;50.748;12.630;2023-07-20T11:29:28;1.40;;;1.30;;
26106;SDS011;13866;50.748;12.630;2023-07-20T11:31:54;1.60;;;1.60;;
26106;SDS011;13866;50.748;12.630;2023-07-20T11:34:20;2.50;;;1.80;;
26106;SDS011;13866;50.748;12.630;2023-07-20T11:36:47;1.40;;;1.40;;
26106;SDS011;13866;50.748;12.630;2023-07-20T11:39:14;1.40;;;1.40;;
26106;SDS011;13866;50.748;12.630;2023-07-20T11:41:57;1.50;;;1.47;;
26106;SDS011;13866;50.748;12.630;2023-07-20T11:44:23;1.57;;;1.47;;
26106;SDS011;13866;50.748;12.630;2023-07-20T11:47:05;1.70;;;1.70;;
26106;SDS011;13866;50.748;12.630;2023-07-20T11:49:36;1.10;;;1.10;;
26106;SDS011;13866;50.748;12.630;2023-07-20T11:52:06;1.23;;;1.23;;
26106;SDS011;13866;50.748;12.630;2023-07-20T11:54:34;2.13;;;2.03;;
26106;SDS011;13866;50.748;12.630;2023-07-20T11:57:02;2.57;;;2.57;;
26106;SDS011;13866;50.748;12.630;2023-07-20T11:59:30;3.30;;;3.00;;
26106;SDS011;13866;50.748;12.630;2023-07-20T12:01:56;4.47;;;3.53;;
26106;SDS011;13866;50.748;12.630;2023-07-20T12:04:23;3.30;;;3.10;;
26106;SDS011;13866;50.748;12.630;2023-07-20T12:06:48;9.20;;;3.67;;
26106;SDS011;13866;50.748;12.630;2023-07-20T12:09:14;4.03;;;3.63;;
26106;SDS011;13866;50.748;12.630;2023-07-20T12:11:42;4.03;;;3.93;;
26106;SDS011;13866;50.748;12.630;2023-07-20T12:14:09;3.47;;;3.37;;
26106;SDS011;13866;50.748;12.630;2023-07-20T12:16:36;3.27;;;3.17;;
26106;SDS011;13866;50.748;12.630;2023-07-20T12:19:04;3.93;;;3.70;;
26106;SDS011;13866;50.748;12.630;2023-07-20T12:21:30;4.23;;;3.93;;
26106;SDS011;13866;50.748;12.630;2023-07-20T12:23:57;3.73;;;3.63;;
26106;SDS011;13866;50.748;12.630;2023-07-20T12:26:23;3.93;;;3.73;;
26106;SDS011;13866;50.748;12.630;2023-07-20T12:28:50;4.03;;;3.93;;
26106;SDS011;13866;50.748;12.630;2023-07-20T12:31:16;4.20;;;4.00;;
26106;SDS011;13866;50.748;12.630;2023-07-20T12:33:42;3.57;;;3.47;;
26106;SDS011;13866;50.748;12.630;2023-07-20T12:36:09;4.67;;;4.47;;
26106;SDS011;13866;50.748;12.630;2023-07-20T12:38:35;4.40;;;4.20;;
26106;SDS011;13866;50.748;12.630;2023-07-20T12:41:01;4.27;;;4.17;;
26106;SDS011;13866;50.748;12.630;2023-07-20T12:43:27;4.63;;;4.33;;
26106;SDS011;13866;50.748;12.630;2023-07-20T12:45:54;4.13;;;4.00;;
26106;SDS011;13866;50.748;12.630;2023-07-20T12:48:20;5.13;;;4.80;;
26106;SDS011;13866;50.748;12.630;2023-07-20T12:50:46;4.70;;;4.37;;
26106;SDS011;13866;50.748;12.630;2023-07-20T12:53:11;4.53;;;4.23;;
26106;SDS011;13866;50.748;12.630;2023-07-20T12:55:37;3.83;;;3.53;;
26106;SDS011;13866;50.748;12.630;2023-07-20T12:58:06;3.93;;;3.67;;
26106;SDS011;13866;50.748;12.630;2023-07-20T13:00:33;4.17;;;4.07;;
26106;SDS011;13866;50.748;12.630;2023-07-20T13:02:58;3.60;;;3.50;;
26106;SDS011;13866;50.748;12.630;2023-07-20T13:05:24;3.40;;;3.40;;
26106;SDS011;13866;50.748;12.630;2023-07-20T13:07:49;4.50;;;4.33;;
26106;SDS011;13866;50.748;12.630;2023-07-20T13:10:15;3.93;;;3.60;;
26106;SDS011;13866;50.748;12.630;2023-07-20T13:12:41;3.13;;;3.10;;
26106;SDS011;13866;50.748;12.630;2023-07-20T13:15:07;3.40;;;3.30;;
26106;SDS011;13866;50.748;12.630;2023-07-20T13:17:38;4.10;;;3.80;;
26106;SDS011;13866;50.748;12.630;2023-07-20T13:20:04;4.10;;;3.80;;
26106;SDS011;13866;50.748;12.630;2023-07-20T13:22:32;3.27;;;3.27;;
26106;SDS011;13866;50.748;12.630;2023-07-20T13:24:59;3.37;;;3.27;;
26106;SDS011;13866;50.748;12.630;2023-07-20T13:27:24;3.73;;;3.63;;
26106;SDS011;13866;50.748;12.630;2023-07-20T13:29:52;3.10;;;3.00;;
26106;SDS011;13866;50.748;12.630;2023-07-20T13:32:18;3.00;;;2.93;;
26106;SDS011;13866;50.748;12.630;2023-07-20T13:34:44;2.47;;;2.47;;
26106;SDS011;13866;50.748;12.630;2023-07-20T13:37:10;2.83;;;2.60;;
26106;SDS011;13866;50.748;12.630;2023-07-20T13:39:36;2.67;;;2.57;;
26106;SDS011;13866;50.748;12.630;2023-07-20T13:42:02;1.87;;;1.87;;
26106;SDS011;13866;50.748;12.630;2023-07-20T13:44:30;6.03;;;1.83;;
26106;SDS011;13866;50.748;12.630;2023-07-20T13:46:59;3.77;;;2.00;;
26106;SDS011;13866;50.748;12.630;2023-07-20T13:49:25;1.53;;;1.53;;
26106;SDS011;13866;50.748;12.630;2023-07-20T13:51:51;2.03;;;2.00;;
26106;SDS011;13866;50.748;12.630;2023-07-20T13:54:16;4.13;;;1.93;;
26106;SDS011;13866;50.748;12.630;2023-07-20T13:56:42;2.40;;;2.20;;
26106;SDS011;13866;50.748;12.630;2023-07-20T13:59:07;1.90;;;1.80;;
26106;SDS011;13866;50.748;12.630;2023-07-20T14:01:33;1.90;;;1.80;;
26106;SDS011;13866;50.748;12.630;2023-07-20T14:03:59;2.30;;;2.20;;
26106;SDS011;13866;50.748;12.630;2023-07-20T14:06:25;2.27;;;2.20;;
26106;SDS011;13866;50.748;12.630;2023-07-20T14:08:51;5.30;;;1.87;;
26106;SDS011;13866;50.748;12.630;2023-07-20T14:11:18;2.20;;;2.10;;
26106;SDS011;13866;50.748;12.630;2023-07-20T14:13:43;1.87;;;1.87;;
26106;SDS011;13866;50.748;12.630;2023-07-20T14:16:09;2.30;;;2.23;;
26106;SDS011;13866;50.748;12.630;2023-07-20T14:18:35;1.80;;;1.67;;
26106;SDS011;13866;50.748;12.630;2023-07-20T14:21:01;1.50;;;1.50;;
26106;SDS011;13866;50.748;12.630;2023-07-20T14:23:28;1.87;;;1.87;;
26106;SDS011;13866;50.748;12.630;2023-07-20T14:25:54;1.57;;;1.57;;
26106;SDS011;13866;50.748;12.630;2023-07-20T14:28:20;1.63;;;1.63;;
26106;SDS011;13866;50.748;12.630;2023-07-20T14:30:45;2.30;;;2.13;;
26106;SDS011;13866;50.748;12.630;2023-07-20T14:33:11;2.30;;;2.10;;
26106;SDS011;13866;50.748;12.630;2023-07-20T14:35:37;1.93;;;1.93;;
26106;SDS011;13866;50.748;12.630;2023-07-20T14:38:02;1.90;;;1.90;;
26106;SDS011;13866;50.748;12.630;2023-07-20T14:40:28;1.67;;;1.57;;